sensor_id;sensor_type;location;lat;lon;timestamp;P1;durP1;ratioP1;P2;durP2;ratioP2
18290;SDS011;9271;48.590;8.866;2023-07-08T00:00:14;7.27;;;5.80;;
18290;SDS011;9271;48.590;8.866;2023-07-08T00:02:43;8.43;;;5.97;;
18290;SDS011;9271;48.590;8.866;2023-07-08T00:05:10;7.60;;;5.70;;
18290;SDS011;9271;48.590;8.866;2023-07-08T00:07:37;6.43;;;5.57;;
18290;SDS011;9271;48.590;8.866;2023-07-08T00:10:15;8.87;;;5.80;;
18290;SDS011;9271;48.590;8.866;2023-07-08T00:12:44;6.33;;;5.50;;
18290;SDS011;9271;48.590;8.866;2023-07-08T00:15:11;7.63;;;5.90;;
18290;SDS011;9271;48.590;8.866;2023-07-08T00:17:40;6.80;;;6.10;;
18290;SDS011;9271;48.590;8.866;2023-07-08T00:20:11;6.47;;;5.77;;
18290;SDS011;9271;48.590;8.866;2023-07-08T00:22:41;6.67;;;5.97;;
18290;SDS011;9271;48.590;8.866;2023-07-08T00:25:08;7.90;;;6.10;;
18290;SDS011;9271;48.590;8.866;2023-07-08T00:27:34;8.70;;;6.10;;
18290;SDS011;9271;48.590;8.866;2023-07-08T00:30:01;7.40;;;5.70;;
18290;SDS011;9271;48.590;8.866;2023-07-08T00:32:36;10.07;;;5.90;;
18290;SDS011;9271;48.590;8.866;2023-07-08T00:35:06;7.27;;;6.20;;
18290;SDS011;9271;48.590;8.866;2023-07-08T00:37:33;8.83;;;5.53;;
18290;SDS011;9271;48.590;8.866;2023-07-08T00:40:00;8.23;;;6.00;;
18290;SDS011;9271;48.590;8.866;2023-07-08T00:42:27;7.83;;;5.87;;
18290;SDS011;9271;48.590;8.866;2023-07-08T00:44:53;8.77;;;6.33;;
18290;SDS011;9271;48.590;8.866;2023-07-08T00:47:21;7.63;;;5.90;;
18290;SDS011;9271;48.590;8.866;2023-07-08T00:49:52;8.03;;;5.60;;
18290;SDS011;9271;48.590;8.866;2023-07-08T00:52:23;6.20;;;5.60;;
18290;SDS011;9271;48.590;8.866;2023-07-08T00:54:52;7.20;;;5.77;;
18290;SDS011;9271;48.590;8.866;2023-07-08T00:57:19;6.83;;;5.37;;
18290;SDS011;9271;48.590;8.866;2023-07-08T00:59:50;10.83;;;6.10;;
18290;SDS011;9271;48.590;8.866;2023-07-08T01:02:21;10.50;;;5.90;;
18290;SDS011;9271;48.590;8.866;2023-07-08T01:04:54;6.67;;;5.63;;
18290;SDS011;9271;48.590;8.866;2023-07-08T01:07:24;6.70;;;5.70;;
18290;SDS011;9271;48.590;8.866;2023-07-08T01:09:52;7.90;;;6.17;;
18290;SDS011;9271;48.590;8.866;2023-07-08T01:12:25;6.30;;;5.70;;
18290;SDS011;9271;48.590;8.866;2023-07-08T01:14:55;7.97;;;6.00;;
18290;SDS011;9271;48.590;8.866;2023-07-08T01:17:23;9.80;;;6.47;;
18290;SDS011;9271;48.590;8.866;2023-07-08T01:19:50;6.53;;;5.63;;
18290;SDS011;9271;48.590;8.866;2023-07-08T01:22:21;9.10;;;5.80;;
18290;SDS011;9271;48.590;8.866;2023-07-08T01:24:48;7.07;;;5.90;;
18290;SDS011;9271;48.590;8.866;2023-07-08T01:27:16;7.00;;;6.17;;
18290;SDS011;9271;48.590;8.866;2023-07-08T01:29:45;7.20;;;5.73;;
18290;SDS011;9271;48.590;8.866;2023-07-08T01:32:12;7.73;;;5.80;;
18290;SDS011;9271;48.590;8.866;2023-07-08T01:34:43;8.83;;;5.80;;
18290;SDS011;9271;48.590;8.866;2023-07-08T01:37:18;7.43;;;5.80;;
18290;SDS011;9271;48.590;8.866;2023-07-08T01:39:46;8.87;;;5.60;;
18290;SDS011;9271;48.590;8.866;2023-07-08T01:42:13;7.73;;;5.77;;
18290;SDS011;9271;48.590;8.866;2023-07-08T01:44:40;6.30;;;5.40;;
18290;SDS011;9271;48.590;8.866;2023-07-08T01:47:07;12.53;;;5.90;;
18290;SDS011;9271;48.590;8.866;2023-07-08T01:49:38;9.20;;;5.93;;
18290;SDS011;9271;48.590;8.866;2023-07-08T01:52:06;8.43;;;6.27;;
18290;SDS011;9271;48.590;8.866;2023-07-08T01:54:34;8.13;;;6.03;;
18290;SDS011;9271;48.590;8.866;2023-07-08T01:57:02;6.97;;;5.90;;
18290;SDS011;9271;48.590;8.866;2023-07-08T01:59:29;6.23;;;5.53;;
18290;SDS011;9271;48.590;8.866;2023-07-08T02:01:56;8.00;;;6.07;;
18290;SDS011;9271;48.590;8.866;2023-07-08T02:04:23;6.90;;;5.67;;
18290;SDS011;9271;48.590;8.866;2023-07-08T02:06:52;6.93;;;5.67;;
18290;SDS011;9271;48.590;8.866;2023-07-08T02:09:19;8.20;;;5.77;;
18290;SDS011;9271;48.590;8.866;2023-07-08T02:11:45;6.77;;;5.83;;
18290;SDS011;9271;48.590;8.866;2023-07-08T02:14:13;7.37;;;6.37;;
18290;SDS011;9271;48.590;8.866;2023-07-08T02:16:40;7.73;;;6.07;;
18290;SDS011;9271;48.590;8.866;2023-07-08T02:19:07;6.60;;;5.80;;
18290;SDS011;9271;48.590;8.866;2023-07-08T02:21:33;7.63;;;5.67;;
18290;SDS011;9271;48.590;8.866;2023-07-08T02:24:00;6.77;;;6.07;;
18290;SDS011;9271;48.590;8.866;2023-07-08T02:26:27;10.10;;;6.23;;
18290;SDS011;9271;48.590;8.866;2023-07-08T02:28:57;7.90;;;5.93;;
18290;SDS011;9271;48.590;8.866;2023-07-08T02:31:25;7.77;;;6.07;;
18290;SDS011;9271;48.590;8.866;2023-07-08T02:33:51;6.53;;;5.63;;
18290;SDS011;9271;48.590;8.866;2023-07-08T02:36:18;6.90;;;6.13;;
18290;SDS011;9271;48.590;8.866;2023-07-08T02:38:45;8.10;;;5.93;;
18290;SDS011;9271;48.590;8.866;2023-07-08T02:41:12;8.37;;;6.57;;
18290;SDS011;9271;48.590;8.866;2023-07-08T02:43:38;7.60;;;6.07;;
18290;SDS011;9271;48.590;8.866;2023-07-08T02:46:05;6.67;;;5.97;;
18290;SDS011;9271;48.590;8.866;2023-07-08T02:48:33;7.00;;;5.93;;
18290;SDS011;9271;48.590;8.866;2023-07-08T02:51:00;8.00;;;6.03;;
18290;SDS011;9271;48.590;8.866;2023-07-08T02:53:28;8.53;;;5.93;;
18290;SDS011;9271;48.590;8.866;2023-07-08T02:55:55;7.40;;;5.40;;
18290;SDS011;9271;48.590;8.866;2023-07-08T02:58:22;7.63;;;6.50;;
18290;SDS011;9271;48.590;8.866;2023-07-08T03:00:51;7.63;;;6.17;;
18290;SDS011;9271;48.590;8.866;2023-07-08T03:03:18;6.53;;;5.83;;
18290;SDS011;9271;48.590;8.866;2023-07-08T03:05:54;7.33;;;5.60;;
18290;SDS011;9271;48.590;8.866;2023-07-08T03:08:21;6.50;;;5.80;;
18290;SDS011;9271;48.590;8.866;2023-07-08T03:10:48;8.47;;;5.80;;
18290;SDS011;9271;48.590;8.866;2023-07-08T03:13:20;7.37;;;5.43;;
18290;SDS011;9271;48.590;8.866;2023-07-08T03:15:47;7.07;;;5.93;;
18290;SDS011;9271;48.590;8.866;2023-07-08T03:18:13;7.77;;;6.27;;
18290;SDS011;9271;48.590;8.866;2023-07-08T03:20:40;7.37;;;5.80;;
18290;SDS011;9271;48.590;8.866;2023-07-08T03:23:10;7.17;;;5.87;;
18290;SDS011;9271;48.590;8.866;2023-07-08T03:25:38;6.53;;;5.87;;
18290;SDS011;9271;48.590;8.866;2023-07-08T03:28:04;7.20;;;5.93;;
18290;SDS011;9271;48.590;8.866;2023-07-08T03:30:39;6.40;;;5.80;;
18290;SDS011;9271;48.590;8.866;2023-07-08T03:33:05;6.77;;;5.80;;
18290;SDS011;9271;48.590;8.866;2023-07-08T03:35:32;8.67;;;6.10;;
18290;SDS011;9271;48.590;8.866;2023-07-08T03:37:59;8.13;;;6.03;;
18290;SDS011;9271;48.590;8.866;2023-07-08T03:40:27;7.40;;;5.60;;
18290;SDS011;9271;48.590;8.866;2023-07-08T03:42:54;8.30;;;6.20;;
18290;SDS011;9271;48.590;8.866;2023-07-08T03:45:20;8.33;;;5.70;;
18290;SDS011;9271;48.590;8.866;2023-07-08T03:47:47;6.80;;;5.93;;
18290;SDS011;9271;48.590;8.866;2023-07-08T03:50:16;8.03;;;5.80;;
18290;SDS011;9271;48.590;8.866;2023-07-08T03:52:44;7.53;;;6.33;;
18290;SDS011;9271;48.590;8.866;2023-07-08T03:55:12;6.67;;;5.80;;
18290;SDS011;9271;48.590;8.866;2023-07-08T03:57:40;7.53;;;6.00;;
18290;SDS011;9271;48.590;8.866;2023-07-08T04:00:07;7.40;;;6.13;;
18290;SDS011;9271;48.590;8.866;2023-07-08T04:02:37;8.83;;;6.33;;
18290;SDS011;9271;48.590;8.866;2023-07-08T04:05:04;6.73;;;5.97;;
18290;SDS011;9271;48.590;8.866;2023-07-08T04:07:31;7.60;;;5.93;;
18290;SDS011;9271;48.590;8.866;2023-07-08T04:09:58;8.20;;;6.13;;
18290;SDS011;9271;48.590;8.866;2023-07-08T04:12:24;7.03;;;6.00;;
18290;SDS011;9271;48.590;8.866;2023-07-08T04:14:54;8.70;;;6.30;;
18290;SDS011;9271;48.590;8.866;2023-07-08T04:17:20;9.17;;;6.03;;
18290;SDS011;9271;48.590;8.866;2023-07-08T04:19:48;7.97;;;6.20;;
18290;SDS011;9271;48.590;8.866;2023-07-08T04:22:15;9.43;;;6.20;;
18290;SDS011;9271;48.590;8.866;2023-07-08T04:24:42;8.37;;;5.80;;
18290;SDS011;9271;48.590;8.866;2023-07-08T04:27:10;6.83;;;5.93;;
18290;SDS011;9271;48.590;8.866;2023-07-08T04:29:39;7.23;;;6.00;;
18290;SDS011;9271;48.590;8.866;2023-07-08T04:32:07;8.47;;;5.90;;
18290;SDS011;9271;48.590;8.866;2023-07-08T04:34:34;7.43;;;6.23;;
18290;SDS011;9271;48.590;8.866;2023-07-08T04:37:00;6.80;;;5.77;;
18290;SDS011;9271;48.590;8.866;2023-07-08T04:39:29;8.23;;;6.53;;
18290;SDS011;9271;48.590;8.866;2023-07-08T04:41:56;9.27;;;6.17;;
18290;SDS011;9271;48.590;8.866;2023-07-08T04:44:22;7.27;;;5.67;;
18290;SDS011;9271;48.590;8.866;2023-07-08T04:46:50;7.27;;;6.07;;
18290;SDS011;9271;48.590;8.866;2023-07-08T04:49:21;9.53;;;5.97;;
18290;SDS011;9271;48.590;8.866;2023-07-08T04:51:49;8.43;;;5.93;;
18290;SDS011;9271;48.590;8.866;2023-07-08T04:54:16;6.63;;;5.93;;
18290;SDS011;9271;48.590;8.866;2023-07-08T04:56:44;6.83;;;5.90;;
18290;SDS011;9271;48.590;8.866;2023-07-08T04:59:13;7.23;;;6.40;;
18290;SDS011;9271;48.590;8.866;2023-07-08T05:01:42;7.03;;;6.03;;
18290;SDS011;9271;48.590;8.866;2023-07-08T05:04:11;6.90;;;5.83;;
18290;SDS011;9271;48.590;8.866;2023-07-08T05:06:41;7.13;;;6.00;;
18290;SDS011;9271;48.590;8.866;2023-07-08T05:09:08;7.37;;;5.90;;
18290;SDS011;9271;48.590;8.866;2023-07-08T05:11:35;8.23;;;6.30;;
18290;SDS011;9271;48.590;8.866;2023-07-08T05:14:02;10.17;;;6.30;;
18290;SDS011;9271;48.590;8.866;2023-07-08T05:16:29;9.47;;;6.17;;
18290;SDS011;9271;48.590;8.866;2023-07-08T05:18:58;7.00;;;6.30;;
18290;SDS011;9271;48.590;8.866;2023-07-08T05:21:25;9.47;;;6.47;;
18290;SDS011;9271;48.590;8.866;2023-07-08T05:23:55;10.00;;;6.80;;
18290;SDS011;9271;48.590;8.866;2023-07-08T05:26:22;10.30;;;7.07;;
18290;SDS011;9271;48.590;8.866;2023-07-08T05:28:49;8.33;;;7.20;;
18290;SDS011;9271;48.590;8.866;2023-07-08T05:31:15;9.67;;;7.20;;
18290;SDS011;9271;48.590;8.866;2023-07-08T05:33:42;11.57;;;7.43;;
18290;SDS011;9271;48.590;8.866;2023-07-08T05:36:08;9.60;;;7.10;;
18290;SDS011;9271;48.590;8.866;2023-07-08T05:38:35;8.10;;;6.57;;
18290;SDS011;9271;48.590;8.866;2023-07-08T05:41:03;8.33;;;6.60;;
18290;SDS011;9271;48.590;8.866;2023-07-08T05:43:30;7.60;;;6.77;;
18290;SDS011;9271;48.590;8.866;2023-07-08T05:45:57;11.83;;;6.77;;
18290;SDS011;9271;48.590;8.866;2023-07-08T05:48:24;10.90;;;7.43;;
18290;SDS011;9271;48.590;8.866;2023-07-08T05:50:51;9.53;;;6.63;;
18290;SDS011;9271;48.590;8.866;2023-07-08T05:53:18;7.10;;;6.40;;
18290;SDS011;9271;48.590;8.866;2023-07-08T05:55:47;8.63;;;6.70;;
18290;SDS011;9271;48.590;8.866;2023-07-08T05:58:15;10.00;;;6.80;;
18290;SDS011;9271;48.590;8.866;2023-07-08T06:00:42;8.90;;;6.50;;
18290;SDS011;9271;48.590;8.866;2023-07-08T06:03:09;8.33;;;7.03;;
18290;SDS011;9271;48.590;8.866;2023-07-08T06:05:36;11.50;;;7.07;;
18290;SDS011;9271;48.590;8.866;2023-07-08T06:08:04;8.57;;;6.67;;
18290;SDS011;9271;48.590;8.866;2023-07-08T06:10:32;11.17;;;7.43;;
18290;SDS011;9271;48.590;8.866;2023-07-08T06:12:59;9.47;;;7.00;;
18290;SDS011;9271;48.590;8.866;2023-07-08T06:15:27;11.27;;;7.80;;
18290;SDS011;9271;48.590;8.866;2023-07-08T06:17:53;10.47;;;7.63;;
18290;SDS011;9271;48.590;8.866;2023-07-08T06:20:20;10.83;;;8.60;;
18290;SDS011;9271;48.590;8.866;2023-07-08T06:22:46;14.03;;;8.10;;
18290;SDS011;9271;48.590;8.866;2023-07-08T06:25:13;9.97;;;7.67;;
18290;SDS011;9271;48.590;8.866;2023-07-08T06:27:40;11.83;;;7.80;;
18290;SDS011;9271;48.590;8.866;2023-07-08T06:30:07;10.37;;;7.87;;
18290;SDS011;9271;48.590;8.866;2023-07-08T06:32:36;14.20;;;9.13;;
18290;SDS011;9271;48.590;8.866;2023-07-08T06:35:03;15.33;;;9.57;;
18290;SDS011;9271;48.590;8.866;2023-07-08T06:37:30;18.87;;;11.13;;
18290;SDS011;9271;48.590;8.866;2023-07-08T06:39:57;27.00;;;14.77;;
18290;SDS011;9271;48.590;8.866;2023-07-08T06:42:23;24.00;;;14.23;;
18290;SDS011;9271;48.590;8.866;2023-07-08T06:44:50;18.37;;;11.03;;
18290;SDS011;9271;48.590;8.866;2023-07-08T06:47:16;16.80;;;10.80;;
18290;SDS011;9271;48.590;8.866;2023-07-08T06:49:46;13.20;;;8.77;;
18290;SDS011;9271;48.590;8.866;2023-07-08T06:52:13;10.17;;;8.33;;
18290;SDS011;9271;48.590;8.866;2023-07-08T06:54:40;9.60;;;7.03;;
18290;SDS011;9271;48.590;8.866;2023-07-08T06:57:06;7.57;;;6.77;;
18290;SDS011;9271;48.590;8.866;2023-07-08T06:59:33;10.37;;;7.10;;
18290;SDS011;9271;48.590;8.866;2023-07-08T07:02:00;8.93;;;5.87;;
18290;SDS011;9271;48.590;8.866;2023-07-08T07:04:27;8.37;;;6.50;;
18290;SDS011;9271;48.590;8.866;2023-07-08T07:06:57;9.83;;;6.93;;
18290;SDS011;9271;48.590;8.866;2023-07-08T07:09:23;6.93;;;6.13;;
18290;SDS011;9271;48.590;8.866;2023-07-08T07:11:50;8.57;;;6.50;;
18290;SDS011;9271;48.590;8.866;2023-07-08T07:14:17;11.23;;;6.57;;
18290;SDS011;9271;48.590;8.866;2023-07-08T07:16:44;8.63;;;6.03;;
18290;SDS011;9271;48.590;8.866;2023-07-08T07:19:10;8.47;;;6.77;;
18290;SDS011;9271;48.590;8.866;2023-07-08T07:21:37;9.03;;;6.03;;
18290;SDS011;9271;48.590;8.866;2023-07-08T07:24:05;11.70;;;6.70;;
18290;SDS011;9271;48.590;8.866;2023-07-08T07:26:32;9.13;;;5.93;;
18290;SDS011;9271;48.590;8.866;2023-07-08T07:29:01;10.27;;;6.53;;
18290;SDS011;9271;48.590;8.866;2023-07-08T07:31:28;7.73;;;6.43;;
18290;SDS011;9271;48.590;8.866;2023-07-08T07:33:54;11.80;;;6.43;;
18290;SDS011;9271;48.590;8.866;2023-07-08T07:36:22;8.77;;;6.57;;
18290;SDS011;9271;48.590;8.866;2023-07-08T07:38:49;10.03;;;6.17;;
18290;SDS011;9271;48.590;8.866;2023-07-08T07:41:17;8.27;;;6.30;;
18290;SDS011;9271;48.590;8.866;2023-07-08T07:43:43;8.97;;;6.77;;
18290;SDS011;9271;48.590;8.866;2023-07-08T07:46:11;9.43;;;6.70;;
18290;SDS011;9271;48.590;8.866;2023-07-08T07:48:37;9.10;;;6.57;;
18290;SDS011;9271;48.590;8.866;2023-07-08T07:51:05;8.47;;;6.43;;
18290;SDS011;9271;48.590;8.866;2023-07-08T07:53:35;9.40;;;6.90;;
18290;SDS011;9271;48.590;8.866;2023-07-08T07:56:02;8.17;;;5.73;;
18290;SDS011;9271;48.590;8.866;2023-07-08T07:58:31;8.77;;;6.27;;
18290;SDS011;9271;48.590;8.866;2023-07-08T08:00:58;7.87;;;6.17;;
18290;SDS011;9271;48.590;8.866;2023-07-08T08:03:25;10.03;;;6.10;;
18290;SDS011;9271;48.590;8.866;2023-07-08T08:05:52;7.87;;;6.27;;
18290;SDS011;9271;48.590;8.866;2023-07-08T08:08:19;8.97;;;6.40;;
18290;SDS011;9271;48.590;8.866;2023-07-08T08:10:47;8.50;;;6.33;;
18290;SDS011;9271;48.590;8.866;2023-07-08T08:13:14;7.23;;;5.53;;
18290;SDS011;9271;48.590;8.866;2023-07-08T08:15:42;8.23;;;6.37;;
18290;SDS011;9271;48.590;8.866;2023-07-08T08:18:08;8.07;;;6.40;;
18290;SDS011;9271;48.590;8.866;2023-07-08T08:20:35;10.30;;;6.23;;
18290;SDS011;9271;48.590;8.866;2023-07-08T08:23:01;13.27;;;6.30;;
18290;SDS011;9271;48.590;8.866;2023-07-08T08:25:28;10.13;;;6.30;;
18290;SDS011;9271;48.590;8.866;2023-07-08T08:27:55;11.17;;;6.10;;
18290;SDS011;9271;48.590;8.866;2023-07-08T08:30:21;8.97;;;6.17;;
18290;SDS011;9271;48.590;8.866;2023-07-08T08:32:49;12.03;;;5.90;;
18290;SDS011;9271;48.590;8.866;2023-07-08T08:35:16;7.07;;;5.82;;
18290;SDS011;9271;48.590;8.866;2023-07-08T08:37:43;6.93;;;5.40;;
18290;SDS011;9271;48.590;8.866;2023-07-08T08:40:11;8.90;;;5.32;;
18290;SDS011;9271;48.590;8.866;2023-07-08T08:42:41;5.80;;;5.20;;
18290;SDS011;9271;48.590;8.866;2023-07-08T08:45:12;8.45;;;5.05;;
18290;SDS011;9271;48.590;8.866;2023-07-08T08:47:43;6.88;;;5.28;;
18290;SDS011;9271;48.590;8.866;2023-07-08T08:50:19;6.40;;;5.18;;
18290;SDS011;9271;48.590;8.866;2023-07-08T08:52:52;8.57;;;5.40;;
18290;SDS011;9271;48.590;8.866;2023-07-08T08:55:20;5.40;;;4.90;;
18290;SDS011;9271;48.590;8.866;2023-07-08T08:57:49;7.35;;;4.68;;
18290;SDS011;9271;48.590;8.866;2023-07-08T09:00:23;6.65;;;4.85;;
18290;SDS011;9271;48.590;8.866;2023-07-08T09:03:01;8.30;;;4.95;;
18290;SDS011;9271;48.590;8.866;2023-07-08T09:05:35;8.13;;;4.70;;
18290;SDS011;9271;48.590;8.866;2023-07-08T09:08:04;6.00;;;4.63;;
18290;SDS011;9271;48.590;8.866;2023-07-08T09:10:39;4.25;;;3.85;;
18290;SDS011;9271;48.590;8.866;2023-07-08T09:13:14;4.10;;;3.22;;
18290;SDS011;9271;48.590;8.866;2023-07-08T09:15:46;4.78;;;3.40;;
18290;SDS011;9271;48.590;8.866;2023-07-08T09:18:16;6.95;;;2.80;;
18290;SDS011;9271;48.590;8.866;2023-07-08T09:20:48;4.47;;;2.60;;
18290;SDS011;9271;48.590;8.866;2023-07-08T09:23:19;3.50;;;2.90;;
18290;SDS011;9271;48.590;8.866;2023-07-08T09:25:51;10.18;;;3.15;;
18290;SDS011;9271;48.590;8.866;2023-07-08T09:28:22;3.15;;;2.83;;
18290;SDS011;9271;48.590;8.866;2023-07-08T09:31:01;3.92;;;2.53;;
18290;SDS011;9271;48.590;8.866;2023-07-08T09:33:31;4.28;;;2.67;;
18290;SDS011;9271;48.590;8.866;2023-07-08T09:36:00;5.40;;;2.97;;
18290;SDS011;9271;48.590;8.866;2023-07-08T09:38:28;3.72;;;2.63;;
18290;SDS011;9271;48.590;8.866;2023-07-08T09:40:54;3.42;;;2.67;;
18290;SDS011;9271;48.590;8.866;2023-07-08T09:43:24;4.03;;;2.47;;
18290;SDS011;9271;48.590;8.866;2023-07-08T09:45:51;2.63;;;2.40;;
18290;SDS011;9271;48.590;8.866;2023-07-08T09:48:25;3.13;;;2.80;;
18290;SDS011;9271;48.590;8.866;2023-07-08T09:50:53;3.70;;;2.55;;
18290;SDS011;9271;48.590;8.866;2023-07-08T09:53:23;3.80;;;2.30;;
18290;SDS011;9271;48.590;8.866;2023-07-08T09:55:51;4.68;;;3.33;;
18290;SDS011;9271;48.590;8.866;2023-07-08T09:58:21;4.25;;;3.20;;
18290;SDS011;9271;48.590;8.866;2023-07-08T10:00:51;7.72;;;3.72;;
18290;SDS011;9271;48.590;8.866;2023-07-08T10:03:21;4.60;;;3.10;;
18290;SDS011;9271;48.590;8.866;2023-07-08T10:05:51;5.97;;;3.30;;
18290;SDS011;9271;48.590;8.866;2023-07-08T10:08:22;3.35;;;3.10;;
18290;SDS011;9271;48.590;8.866;2023-07-08T10:10:57;6.13;;;3.20;;
18290;SDS011;9271;48.590;8.866;2023-07-08T10:13:28;3.55;;;3.25;;
18290;SDS011;9271;48.590;8.866;2023-07-08T10:16:07;4.18;;;3.00;;
18290;SDS011;9271;48.590;8.866;2023-07-08T10:18:39;4.78;;;3.17;;
18290;SDS011;9271;48.590;8.866;2023-07-08T10:21:08;3.58;;;2.80;;
18290;SDS011;9271;48.590;8.866;2023-07-08T10:23:48;5.03;;;3.30;;
18290;SDS011;9271;48.590;8.866;2023-07-08T10:26:23;3.00;;;2.70;;
18290;SDS011;9271;48.590;8.866;2023-07-08T10:28:56;4.30;;;3.15;;
18290;SDS011;9271;48.590;8.866;2023-07-08T10:31:39;3.70;;;3.20;;
18290;SDS011;9271;48.590;8.866;2023-07-08T10:34:22;4.32;;;3.22;;
18290;SDS011;9271;48.590;8.866;2023-07-08T10:37:00;5.53;;;3.20;;
18290;SDS011;9271;48.590;8.866;2023-07-08T10:39:43;5.72;;;3.30;;
18290;SDS011;9271;48.590;8.866;2023-07-08T10:42:23;4.28;;;3.30;;
18290;SDS011;9271;48.590;8.866;2023-07-08T10:45:04;4.55;;;3.20;;
18290;SDS011;9271;48.590;8.866;2023-07-08T10:47:40;5.03;;;2.40;;
18290;SDS011;9271;48.590;8.866;2023-07-08T10:50:30;2.70;;;2.50;;
18290;SDS011;9271;48.590;8.866;2023-07-08T10:53:17;2.53;;;2.33;;
18290;SDS011;9271;48.590;8.866;2023-07-08T10:55:55;2.35;;;2.15;;
18290;SDS011;9271;48.590;8.866;2023-07-08T10:58:29;5.05;;;2.60;;
18290;SDS011;9271;48.590;8.866;2023-07-08T11:01:08;3.28;;;2.42;;
18290;SDS011;9271;48.590;8.866;2023-07-08T11:03:59;2.92;;;2.22;;
18290;SDS011;9271;48.590;8.866;2023-07-08T11:06:40;2.85;;;2.30;;
18290;SDS011;9271;48.590;8.866;2023-07-08T11:09:13;2.58;;;2.38;;
18290;SDS011;9271;48.590;8.866;2023-07-08T11:11:46;2.55;;;2.20;;
18290;SDS011;9271;48.590;8.866;2023-07-08T11:14:18;2.33;;;2.05;;
18290;SDS011;9271;48.590;8.866;2023-07-08T11:16:50;2.47;;;2.05;;
18290;SDS011;9271;48.590;8.866;2023-07-08T11:19:23;3.15;;;2.33;;
18290;SDS011;9271;48.590;8.866;2023-07-08T11:21:55;2.42;;;2.22;;
18290;SDS011;9271;48.590;8.866;2023-07-08T11:24:28;3.00;;;2.38;;
18290;SDS011;9271;48.590;8.866;2023-07-08T11:27:04;2.60;;;2.35;;
18290;SDS011;9271;48.590;8.866;2023-07-08T11:29:36;2.75;;;2.30;;
18290;SDS011;9271;48.590;8.866;2023-07-08T11:32:06;4.28;;;1.80;;
18290;SDS011;9271;48.590;8.866;2023-07-08T11:34:37;4.03;;;2.20;;
18290;SDS011;9271;48.590;8.866;2023-07-08T11:37:07;2.53;;;2.10;;
18290;SDS011;9271;48.590;8.866;2023-07-08T11:39:38;2.15;;;1.95;;
18290;SDS011;9271;48.590;8.866;2023-07-08T11:42:13;2.38;;;2.15;;
18290;SDS011;9271;48.590;8.866;2023-07-08T11:44:43;5.88;;;2.40;;
18290;SDS011;9271;48.590;8.866;2023-07-08T11:47:18;2.40;;;2.20;;
18290;SDS011;9271;48.590;8.866;2023-07-08T11:49:47;2.45;;;2.00;;
18290;SDS011;9271;48.590;8.866;2023-07-08T11:52:16;2.17;;;1.88;;
18290;SDS011;9271;48.590;8.866;2023-07-08T11:54:45;2.88;;;2.08;;
18290;SDS011;9271;48.590;8.866;2023-07-08T11:57:18;2.75;;;1.98;;
18290;SDS011;9271;48.590;8.866;2023-07-08T11:59:57;2.20;;;2.00;;
18290;SDS011;9271;48.590;8.866;2023-07-08T12:02:50;2.33;;;2.13;;
18290;SDS011;9271;48.590;8.866;2023-07-08T12:05:30;2.72;;;1.90;;
18290;SDS011;9271;48.590;8.866;2023-07-08T12:07:59;2.70;;;2.00;;
18290;SDS011;9271;48.590;8.866;2023-07-08T12:10:27;2.20;;;2.00;;
18290;SDS011;9271;48.590;8.866;2023-07-08T12:13:00;3.63;;;2.00;;
18290;SDS011;9271;48.590;8.866;2023-07-08T12:15:27;2.80;;;1.98;;
18290;SDS011;9271;48.590;8.866;2023-07-08T12:17:56;1.70;;;1.60;;
18290;SDS011;9271;48.590;8.866;2023-07-08T12:20:27;1.77;;;1.60;;
18290;SDS011;9271;48.590;8.866;2023-07-08T12:22:55;2.35;;;2.08;;
18290;SDS011;9271;48.590;8.866;2023-07-08T12:25:26;1.80;;;1.70;;
18290;SDS011;9271;48.590;8.866;2023-07-08T12:28:01;2.53;;;1.55;;
18290;SDS011;9271;48.590;8.866;2023-07-08T12:30:28;3.42;;;1.67;;
18290;SDS011;9271;48.590;8.866;2023-07-08T12:32:56;1.67;;;1.58;;
18290;SDS011;9271;48.590;8.866;2023-07-08T12:35:26;1.88;;;1.77;;
18290;SDS011;9271;48.590;8.866;2023-07-08T12:37:56;2.40;;;1.90;;
18290;SDS011;9271;48.590;8.866;2023-07-08T12:40:25;2.00;;;1.80;;
18290;SDS011;9271;48.590;8.866;2023-07-08T12:42:53;2.72;;;2.15;;
18290;SDS011;9271;48.590;8.866;2023-07-08T12:45:22;2.03;;;1.80;;
18290;SDS011;9271;48.590;8.866;2023-07-08T12:47:50;2.05;;;1.83;;
18290;SDS011;9271;48.590;8.866;2023-07-08T12:50:17;2.08;;;1.98;;
18290;SDS011;9271;48.590;8.866;2023-07-08T12:52:45;2.58;;;1.90;;
18290;SDS011;9271;48.590;8.866;2023-07-08T12:55:12;2.65;;;1.80;;
18290;SDS011;9271;48.590;8.866;2023-07-08T12:57:40;1.90;;;1.80;;
18290;SDS011;9271;48.590;8.866;2023-07-08T13:00:11;2.30;;;2.10;;
18290;SDS011;9271;48.590;8.866;2023-07-08T13:02:43;1.90;;;1.80;;
18290;SDS011;9271;48.590;8.866;2023-07-08T13:05:11;2.17;;;1.90;;
18290;SDS011;9271;48.590;8.866;2023-07-08T13:07:39;2.50;;;1.80;;
18290;SDS011;9271;48.590;8.866;2023-07-08T13:10:13;3.85;;;1.73;;
18290;SDS011;9271;48.590;8.866;2023-07-08T13:12:43;1.92;;;1.83;;
18290;SDS011;9271;48.590;8.866;2023-07-08T13:15:13;1.90;;;1.80;;
18290;SDS011;9271;48.590;8.866;2023-07-08T13:17:47;2.35;;;1.60;;
18290;SDS011;9271;48.590;8.866;2023-07-08T13:20:14;5.78;;;5.22;;
18290;SDS011;9271;48.590;8.866;2023-07-08T13:22:42;2.45;;;2.10;;
18290;SDS011;9271;48.590;8.866;2023-07-08T13:25:16;2.28;;;2.10;;
18290;SDS011;9271;48.590;8.866;2023-07-08T13:27:54;3.00;;;1.98;;
18290;SDS011;9271;48.590;8.866;2023-07-08T13:30:23;3.20;;;1.90;;
18290;SDS011;9271;48.590;8.866;2023-07-08T13:32:53;20.30;;;18.13;;
18290;SDS011;9271;48.590;8.866;2023-07-08T13:35:21;9.68;;;8.68;;
18290;SDS011;9271;48.590;8.866;2023-07-08T13:37:52;2.50;;;2.30;;
18290;SDS011;9271;48.590;8.866;2023-07-08T13:40:20;3.95;;;3.55;;
18290;SDS011;9271;48.590;8.866;2023-07-08T13:42:48;2.83;;;1.90;;
18290;SDS011;9271;48.590;8.866;2023-07-08T13:45:21;3.75;;;1.90;;
18290;SDS011;9271;48.590;8.866;2023-07-08T13:48:09;2.50;;;1.90;;
18290;SDS011;9271;48.590;8.866;2023-07-08T13:50:41;2.40;;;2.10;;
18290;SDS011;9271;48.590;8.866;2023-07-08T13:53:19;3.63;;;2.30;;
18290;SDS011;9271;48.590;8.866;2023-07-08T13:55:48;3.67;;;1.90;;
18290;SDS011;9271;48.590;8.866;2023-07-08T13:58:25;2.40;;;2.20;;
18290;SDS011;9271;48.590;8.866;2023-07-08T14:00:53;2.97;;;2.20;;
18290;SDS011;9271;48.590;8.866;2023-07-08T14:03:21;1.95;;;1.75;;
18290;SDS011;9271;48.590;8.866;2023-07-08T14:05:48;6.38;;;2.10;;
18290;SDS011;9271;48.590;8.866;2023-07-08T14:08:16;3.00;;;2.10;;
18290;SDS011;9271;48.590;8.866;2023-07-08T14:10:43;3.85;;;2.17;;
18290;SDS011;9271;48.590;8.866;2023-07-08T14:13:10;2.92;;;2.45;;
18290;SDS011;9271;48.590;8.866;2023-07-08T14:15:37;3.38;;;2.70;;
18290;SDS011;9271;48.590;8.866;2023-07-08T14:18:05;3.72;;;3.30;;
18290;SDS011;9271;48.590;8.866;2023-07-08T14:20:35;11.98;;;10.98;;
18290;SDS011;9271;48.590;8.866;2023-07-08T14:23:02;9.32;;;8.13;;
18290;SDS011;9271;48.590;8.866;2023-07-08T14:25:29;4.97;;;4.05;;
18290;SDS011;9271;48.590;8.866;2023-07-08T14:27:55;2.83;;;2.20;;
18290;SDS011;9271;48.590;8.866;2023-07-08T14:30:22;2.08;;;1.70;;
18290;SDS011;9271;48.590;8.866;2023-07-08T14:32:49;3.63;;;2.20;;
18290;SDS011;9271;48.590;8.866;2023-07-08T14:35:16;2.47;;;2.03;;
18290;SDS011;9271;48.590;8.866;2023-07-08T14:37:48;2.45;;;2.20;;
18290;SDS011;9271;48.590;8.866;2023-07-08T14:40:19;2.65;;;2.08;;
18290;SDS011;9271;48.590;8.866;2023-07-08T14:42:50;4.32;;;4.03;;
18290;SDS011;9271;48.590;8.866;2023-07-08T14:45:24;2.72;;;1.88;;
18290;SDS011;9271;48.590;8.866;2023-07-08T14:47:51;2.00;;;1.90;;
18290;SDS011;9271;48.590;8.866;2023-07-08T14:50:17;2.80;;;2.10;;
18290;SDS011;9271;48.590;8.866;2023-07-08T14:52:44;4.80;;;3.35;;
18290;SDS011;9271;48.590;8.866;2023-07-08T14:55:12;14.65;;;13.25;;
18290;SDS011;9271;48.590;8.866;2023-07-08T14:57:40;14.23;;;9.68;;
18290;SDS011;9271;48.590;8.866;2023-07-08T15:00:11;2.72;;;2.53;;
18290;SDS011;9271;48.590;8.866;2023-07-08T15:02:40;1.90;;;1.80;;
18290;SDS011;9271;48.590;8.866;2023-07-08T15:05:10;2.13;;;1.95;;
18290;SDS011;9271;48.590;8.866;2023-07-08T15:07:40;3.30;;;1.92;;
18290;SDS011;9271;48.590;8.866;2023-07-08T15:10:07;4.90;;;2.20;;
18290;SDS011;9271;48.590;8.866;2023-07-08T15:12:36;3.92;;;2.10;;